createdAt,value
2023-05-03T00:02:25.289Z,100214.38
2023-05-03T00:04:53.576Z,100202.22
2023-05-03T00:07:22.073Z,100204.47
2023-05-03T00:09:50.051Z,100199.22
2023-05-03T00:12:17.627Z,100205.53
2023-05-03T00:14:45.684Z,100214.00
2023-05-03T00:17:12.945Z,100203.59
2023-05-03T00:19:40.625Z,100206.09
2023-05-03T00:22:09.055Z,100205.22
2023-05-03T00:24:36.353Z,100207.66
2023-05-03T00:27:04.303Z,100204.88
2023-05-03T00:29:31.616Z,100200.69
2023-05-03T00:32:00.260Z,100202.78
2023-05-03T00:34:27.928Z,100205.38
2023-05-03T00:36:55.236Z,100205.69
2023-05-03T00:39:22.509Z,100202.47
2023-05-03T00:41:50.199Z,100206.28
2023-05-03T00:44:17.383Z,100210.28
2023-05-03T00:46:44.588Z,100208.66
2023-05-03T00:49:12.227Z,100208.03
2023-05-03T00:51:39.619Z,100214.19
2023-05-03T00:54:06.803Z,100224.16
2023-05-03T00:56:47.793Z,100223.41
2023-05-03T00:59:18.856Z,100224.25
2023-05-03T01:01:50.058Z,100227.56
2023-05-03T01:04:17.859Z,100228.25
2023-05-03T01:06:48.018Z,100227.37
2023-05-03T01:09:17.516Z,100233.00
2023-05-03T01:11:53.940Z,100229.22
2023-05-03T01:14:29.051Z,100235.69
2023-05-03T01:16:57.233Z,100232.19
2023-05-03T01:19:35.226Z,100240.63
2023-05-03T01:22:22.956Z,100235.69
2023-05-03T01:24:51.597Z,100239.19
2023-05-03T01:27:19.379Z,100237.47
2023-05-03T01:29:46.761Z,100239.06
2023-05-03T01:32:15.889Z,100236.00
2023-05-03T01:34:43.585Z,100229.75
2023-05-03T01:37:11.014Z,100232.56
2023-05-03T01:39:42.461Z,100235.34
2023-05-03T01:42:09.639Z,100228.72
2023-05-03T01:44:36.874Z,100227.97
2023-05-03T01:47:04.360Z,100229.69
2023-05-03T01:49:33.223Z,100232.69
2023-05-03T01:52:00.591Z,100227.50
2023-05-03T01:54:28.115Z,100225.66
2023-05-03T01:56:55.396Z,100221.59
2023-05-03T01:59:22.618Z,100225.44
2023-05-03T02:01:50.076Z,100221.84
2023-05-03T02:04:17.629Z,100215.47
2023-05-03T02:06:44.988Z,100218.47
2023-05-03T02:09:12.431Z,100212.72
2023-05-03T02:11:41.124Z,100209.16
2023-05-03T02:14:08.294Z,100215.44
2023-05-03T02:16:35.969Z,100213.00
2023-05-03T02:19:03.230Z,100209.78
2023-05-03T02:21:31.615Z,100206.53
2023-05-03T02:23:59.877Z,100205.53
2023-05-03T02:26:27.354Z,100208.72
2023-05-03T02:28:56.013Z,100205.38
2023-05-03T02:31:24.137Z,100207.22
2023-05-03T02:33:51.484Z,100207.75
2023-05-03T02:36:18.678Z,100207.66
2023-05-03T02:38:46.961Z,100192.09
2023-05-03T02:41:14.373Z,100199.31
2023-05-03T02:43:41.581Z,100199.38
2023-05-03T02:46:09.058Z,100196.81
2023-05-03T02:48:36.276Z,100190.03
2023-05-03T02:51:03.564Z,100190.84
2023-05-03T02:53:31.082Z,100198.78
2023-05-03T02:55:58.949Z,100190.84
2023-05-03T02:58:26.188Z,100203.16
2023-05-03T03:00:54.108Z,100188.53
2023-05-03T03:03:21.790Z,100189.81
2023-05-03T03:05:50.237Z,100196.97
2023-05-03T03:08:18.944Z,100188.47
2023-05-03T03:10:46.181Z,100189.13
2023-05-03T03:13:13.412Z,100186.44
2023-05-03T03:15:41.269Z,100180.38
2023-05-03T03:18:08.499Z,100181.38
2023-05-03T03:20:36.377Z,100190.69
2023-05-03T03:23:03.837Z,100181.75
2023-05-03T03:25:32.249Z,100190.56
2023-05-03T03:27:59.460Z,100196.31
2023-05-03T03:30:27.422Z,100192.31
2023-05-03T03:32:55.726Z,100200.94
2023-05-03T03:35:23.781Z,100200.06
2023-05-03T03:37:51.590Z,100192.72
2023-05-03T03:40:19.219Z,100199.59
2023-05-03T03:42:47.088Z,100191.06
2023-05-03T03:45:14.668Z,100196.75
2023-05-03T03:47:42.191Z,100192.16
2023-05-03T03:50:09.760Z,100182.44
2023-05-03T03:52:37.367Z,100203.59
2023-05-03T03:55:05.107Z,100206.16
2023-05-03T03:57:33.339Z,100204.16
2023-05-03T04:00:01.398Z,100214.28
2023-05-03T04:02:39.677Z,100217.69
2023-05-03T04:05:09.256Z,100215.09
2023-05-03T04:07:36.726Z,100212.44
2023-05-03T04:10:04.392Z,100226.63
2023-05-03T04:12:32.209Z,100221.75
2023-05-03T04:14:59.518Z,100227.56
2023-05-03T04:17:26.959Z,100230.37
2023-05-03T04:19:54.466Z,100231.97
2023-05-03T04:22:22.140Z,100236.06
2023-05-03T04:24:50.597Z,100236.47
2023-05-03T04:27:18.832Z,100237.50
2023-05-03T04:29:46.183Z,100241.03
2023-05-03T04:32:14.488Z,100248.50
2023-05-03T04:34:44.316Z,100248.78
2023-05-03T04:37:11.557Z,100244.56
2023-05-03T04:39:40.032Z,100247.53
2023-05-03T04:42:08.828Z,100255.41
2023-05-03T04:44:36.547Z,100252.06
2023-05-03T04:47:03.869Z,100253.47
2023-05-03T04:49:32.999Z,100260.41
2023-05-03T04:52:00.606Z,100259.69
2023-05-03T04:54:28.350Z,100259.16
2023-05-03T04:56:57.552Z,100266.84
2023-05-03T04:59:25.209Z,100265.38
2023-05-03T05:01:52.728Z,100270.31
2023-05-03T05:04:21.023Z,100273.66
2023-05-03T05:06:50.767Z,100273.75
2023-05-03T05:09:22.027Z,100279.38
2023-05-03T05:11:50.071Z,100272.81
2023-05-03T05:14:18.117Z,100274.56
2023-05-03T05:16:45.536Z,100273.59
2023-05-03T05:19:13.560Z,100277.06
2023-05-03T05:21:41.127Z,100279.47
2023-05-03T05:24:08.987Z,100279.47
2023-05-03T05:26:37.628Z,100279.78
2023-05-03T05:29:04.944Z,100277.34
2023-05-03T05:31:32.764Z,100282.72
2023-05-03T05:34:00.554Z,100285.94
2023-05-03T05:36:27.893Z,100287.00
2023-05-03T05:38:55.239Z,100292.97
2023-05-03T05:41:22.701Z,100290.34
2023-05-03T05:43:50.416Z,100291.34
2023-05-03T05:46:18.024Z,100293.12
2023-05-03T05:48:45.769Z,100287.16
2023-05-03T05:51:13.152Z,100289.22
2023-05-03T05:53:40.723Z,100286.44
2023-05-03T05:56:08.969Z,100296.19
2023-05-03T05:58:37.582Z,100294.16
2023-05-03T06:01:05.574Z,100304.03
2023-05-03T06:03:34.256Z,100299.34
2023-05-03T06:06:01.841Z,100306.38
2023-05-03T06:08:29.102Z,100309.38
2023-05-03T06:10:56.691Z,100310.50
2023-05-03T06:13:25.038Z,100319.84
2023-05-03T06:15:52.450Z,100320.94
2023-05-03T06:18:20.025Z,100329.00
2023-05-03T06:20:51.202Z,100329.00
2023-05-03T06:23:18.811Z,100331.78
2023-05-03T06:25:47.511Z,100333.97
2023-05-03T06:28:15.961Z,100336.47
2023-05-03T06:30:48.146Z,100339.47
2023-05-03T06:33:16.384Z,100344.25
2023-05-03T06:35:43.891Z,100348.13
2023-05-03T06:38:12.121Z,100351.84
2023-05-03T06:40:41.388Z,100353.53
2023-05-03T06:43:08.715Z,100359.63
2023-05-03T06:45:36.305Z,100355.41
2023-05-03T06:48:04.027Z,100353.31
2023-05-03T06:50:31.316Z,100352.37
2023-05-03T06:52:58.679Z,100348.44
2023-05-03T06:55:29.564Z,100361.91
2023-05-03T06:57:58.080Z,100357.91
2023-05-03T07:00:26.102Z,100359.19
2023-05-03T07:02:53.728Z,100344.75
2023-05-03T07:05:21.240Z,100358.25
2023-05-03T07:07:55.736Z,100353.00
2023-05-03T07:10:23.246Z,100356.22
2023-05-03T07:12:50.483Z,100356.16
2023-05-03T07:15:17.668Z,100363.88
2023-05-03T07:17:45.070Z,100358.34
2023-05-03T07:20:12.406Z,100357.78
2023-05-03T07:22:39.549Z,100365.28
2023-05-03T07:25:08.218Z,100351.53
2023-05-03T07:27:35.706Z,100349.72
2023-05-03T07:30:04.898Z,100356.50
2023-05-03T07:32:33.049Z,100354.81
2023-05-03T07:35:00.317Z,100349.59
2023-05-03T07:37:28.975Z,100348.72
2023-05-03T07:39:57.435Z,100357.41
2023-05-03T07:42:24.606Z,100356.44
2023-05-03T07:44:52.358Z,100353.19
2023-05-03T07:47:19.868Z,100346.25
2023-05-03T07:49:47.927Z,100347.88
2023-05-03T07:52:15.177Z,100352.59
2023-05-03T07:54:43.785Z,100354.06
2023-05-03T07:57:11.030Z,100354.09
2023-05-03T07:59:39.039Z,100362.16
2023-05-03T08:02:07.437Z,100361.72
2023-05-03T08:04:35.270Z,100366.03
2023-05-03T08:07:02.771Z,100362.16
2023-05-03T08:09:29.976Z,100363.63
2023-05-03T08:11:57.805Z,100363.88
2023-05-03T08:14:25.044Z,100363.47
2023-05-03T08:16:52.431Z,100370.16
2023-05-03T08:19:20.112Z,100367.13
2023-05-03T08:21:47.802Z,100372.47
2023-05-03T08:24:16.143Z,100366.91
2023-05-03T08:26:45.788Z,100366.56
2023-05-03T08:29:13.470Z,100364.16
2023-05-03T08:31:41.338Z,100366.56
2023-05-03T08:34:10.813Z,100365.84
2023-05-03T08:36:41.628Z,100366.34
2023-05-03T08:39:10.340Z,100365.97
2023-05-03T08:41:37.529Z,100368.28
2023-05-03T08:44:05.660Z,100374.59
2023-05-03T08:46:37.146Z,100371.00
2023-05-03T08:49:04.639Z,100375.38
2023-05-03T08:51:32.128Z,100379.06
2023-05-03T08:53:59.629Z,100378.56
2023-05-03T08:56:33.713Z,100378.25
2023-05-03T08:59:07.595Z,100368.78
2023-05-03T09:01:38.575Z,100379.69
2023-05-03T09:04:06.654Z,100385.87
2023-05-03T09:06:34.451Z,100378.19
2023-05-03T09:09:02.027Z,100373.03
2023-05-03T09:11:31.159Z,100372.87
2023-05-03T09:14:17.413Z,100377.00
2023-05-03T09:16:45.672Z,100374.88
2023-05-03T09:19:13.481Z,100382.00
2023-05-03T09:21:44.349Z,100376.09
2023-05-03T09:24:15.466Z,100374.62
2023-05-03T09:26:43.125Z,100378.94
2023-05-03T09:29:10.583Z,100380.50
2023-05-03T09:31:38.321Z,100375.13
2023-05-03T09:34:21.123Z,100370.00
2023-05-03T09:36:48.611Z,100376.13
2023-05-03T09:39:16.330Z,100367.28
2023-05-03T09:41:43.563Z,100371.19
2023-05-03T09:44:11.017Z,100370.22
2023-05-03T09:46:38.295Z,100375.09
2023-05-03T09:49:06.876Z,100378.16
2023-05-03T09:51:34.318Z,100364.50
2023-05-03T09:54:01.572Z,100370.69
2023-05-03T09:56:28.841Z,100369.75
2023-05-03T09:58:56.388Z,100370.78
2023-05-03T10:01:24.307Z,100369.78
2023-05-03T10:03:52.019Z,100365.78
2023-05-03T10:06:29.414Z,100377.88
2023-05-03T10:09:00.915Z,100368.09
2023-05-03T10:11:29.276Z,100369.84
2023-05-03T10:13:57.057Z,100363.00
2023-05-03T10:16:26.700Z,100357.69
2023-05-03T10:18:54.801Z,100364.84
2023-05-03T10:21:25.110Z,100363.66
2023-05-03T10:24:13.025Z,100361.59
2023-05-03T10:26:41.763Z,100363.56
2023-05-03T10:29:27.909Z,100363.41
2023-05-03T10:31:55.737Z,100357.31
2023-05-03T10:34:24.138Z,100359.59
2023-05-03T10:36:53.318Z,100354.16
2023-05-03T10:39:21.076Z,100358.97
2023-05-03T10:42:04.120Z,100349.28
2023-05-03T10:44:52.553Z,100348.16
2023-05-03T10:47:22.716Z,100352.75
2023-05-03T10:50:09.171Z,100341.34
2023-05-03T10:52:36.348Z,100344.88
2023-05-03T10:55:10.099Z,100338.44
2023-05-03T10:57:39.557Z,100330.72
2023-05-03T11:00:12.412Z,100336.81
2023-05-03T11:02:59.905Z,100342.88
2023-05-03T11:05:28.131Z,100345.31
2023-05-03T11:08:11.572Z,100340.53
2023-05-03T11:10:39.223Z,100341.41
2023-05-03T11:13:06.888Z,100331.53
2023-05-03T11:15:34.192Z,100342.72
2023-05-03T11:18:02.084Z,100342.56
2023-05-03T11:20:29.459Z,100337.78
2023-05-03T11:22:56.674Z,100347.56
2023-05-03T11:25:24.157Z,100348.03
2023-05-03T11:27:51.385Z,100344.63
2023-05-03T11:30:18.622Z,100345.06
2023-05-03T11:32:46.199Z,100341.53
2023-05-03T11:35:13.953Z,100340.94
2023-05-03T11:37:42.182Z,100336.88
2023-05-03T11:40:17.079Z,100341.84
2023-05-03T11:42:54.181Z,100342.56
2023-05-03T11:45:25.636Z,100340.81
2023-05-03T11:47:53.161Z,100343.44
2023-05-03T11:50:26.596Z,100341.91
2023-05-03T11:52:54.023Z,100343.13
2023-05-03T11:55:21.601Z,100343.34
2023-05-03T11:57:48.780Z,100341.53
2023-05-03T12:00:20.330Z,100340.91
2023-05-03T12:02:48.351Z,100337.56
2023-05-03T12:08:20.910Z,100338.66
2023-05-03T12:10:50.334Z,100342.50
2023-05-03T12:13:30.465Z,100337.75
2023-05-03T12:16:10.701Z,100347.28
2023-05-03T12:18:55.946Z,100346.59
2023-05-03T12:23:56.551Z,100332.94
2023-05-03T12:26:26.607Z,100335.19
2023-05-03T12:28:56.601Z,100340.62
2023-05-03T12:31:24.838Z,100342.66
2023-05-03T12:36:25.872Z,100325.34
2023-05-03T12:38:56.485Z,100332.03
2023-05-03T12:42:04.797Z,100330.72
2023-05-03T12:44:17.071Z,100329.25
2023-05-03T12:46:45.503Z,100319.84
2023-05-03T12:49:15.310Z,100327.94
2023-05-03T12:51:43.592Z,100317.28
2023-05-03T12:54:12.217Z,100313.00
2023-05-03T12:56:41.171Z,100310.75
2023-05-03T13:02:40.775Z,100310.97
2023-05-03T13:06:59.515Z,100322.25
2023-05-03T13:09:37.756Z,100310.75
2023-05-03T13:12:05.839Z,100308.25
2023-05-03T13:14:33.477Z,100302.38
2023-05-03T13:17:03.112Z,100300.38
2023-05-03T13:19:30.406Z,100303.16
2023-05-03T13:21:57.829Z,100300.59
2023-05-03T13:24:25.013Z,100303.44
2023-05-03T13:26:53.360Z,100303.59
2023-05-03T13:29:23.079Z,100298.81
2023-05-03T13:31:50.467Z,100305.31
2023-05-03T13:34:17.701Z,100300.81
2023-05-03T13:36:45.242Z,100295.88
2023-05-03T13:39:12.886Z,100294.72
2023-05-03T13:41:41.031Z,100299.28
2023-05-03T13:44:09.573Z,100301.84
2023-05-03T13:46:37.312Z,100301.97
2023-05-03T13:49:07.701Z,100290.47
2023-05-03T13:51:35.397Z,100283.31
2023-05-03T13:54:03.229Z,100288.91
2023-05-03T13:56:30.796Z,100284.16
2023-05-03T13:58:58.233Z,100281.56
2023-05-03T14:01:25.896Z,100275.72
2023-05-03T14:03:53.821Z,100283.34
2023-05-03T14:06:21.403Z,100274.19
2023-05-03T14:08:48.627Z,100274.25
2023-05-03T14:11:17.358Z,100269.53
2023-05-03T14:13:56.453Z,100278.31
2023-05-03T14:18:56.893Z,100280.00
2023-05-03T14:21:24.911Z,100284.50
2023-05-03T14:23:53.673Z,100286.78
2023-05-03T14:26:23.359Z,100277.37
2023-05-03T14:28:51.219Z,100278.69
2023-05-03T14:31:18.520Z,100271.09
2023-05-03T14:33:45.780Z,100276.25
2023-05-03T14:36:13.356Z,100280.34
2023-05-03T14:38:40.547Z,100274.44
2023-05-03T14:41:07.773Z,100275.97
2023-05-03T14:43:35.436Z,100269.81
2023-05-03T14:46:02.737Z,100272.59
2023-05-03T14:48:30.273Z,100270.56
2023-05-03T14:50:57.839Z,100277.13
2023-05-03T14:53:25.057Z,100281.00
2023-05-03T14:55:53.856Z,100287.41
2023-05-03T14:58:21.836Z,100288.88
2023-05-03T15:00:49.250Z,100286.94
2023-05-03T15:03:16.674Z,100279.81
2023-05-03T15:05:48.302Z,100283.50
2023-05-03T15:08:17.015Z,100282.16
2023-05-03T15:10:44.816Z,100278.00
2023-05-03T15:13:12.607Z,100284.78
2023-05-03T15:15:40.542Z,100281.44
2023-05-03T15:18:08.807Z,100275.63
2023-05-03T15:20:36.524Z,100282.00
2023-05-03T15:23:04.604Z,100284.50
2023-05-03T15:25:32.096Z,100276.09
2023-05-03T15:28:01.908Z,100278.72
2023-05-03T15:30:32.797Z,100277.25
2023-05-03T15:33:01.081Z,100282.31
2023-05-03T15:35:28.427Z,100287.03
2023-05-03T15:37:55.952Z,100281.31
2023-05-03T15:40:26.089Z,100279.41
2023-05-03T15:42:54.157Z,100287.50
2023-05-03T15:45:23.452Z,100290.56
2023-05-03T15:47:50.953Z,100295.25
2023-05-03T15:50:18.402Z,100293.28
2023-05-03T15:52:48.843Z,100291.25
2023-05-03T15:55:17.388Z,100290.97
2023-05-03T15:57:45.551Z,100289.53
2023-05-03T16:00:16.080Z,100292.88
2023-05-03T16:02:43.648Z,100288.91
2023-05-03T16:05:11.698Z,100296.16
2023-05-03T16:07:38.986Z,100303.44
2023-05-03T16:10:07.675Z,100296.75
2023-05-03T16:12:35.381Z,100301.56
2023-05-03T16:15:03.108Z,100308.34
2023-05-03T16:17:30.873Z,100304.72
2023-05-03T16:19:58.119Z,100300.31
2023-05-03T16:22:25.574Z,100306.16
2023-05-03T16:24:55.888Z,100297.31
2023-05-03T16:27:23.044Z,100311.13
2023-05-03T16:29:51.571Z,100302.06
2023-05-03T16:32:19.255Z,100299.88
2023-05-03T16:34:47.203Z,100300.66
2023-05-03T16:37:15.635Z,100312.13
2023-05-03T16:39:43.081Z,100309.31
2023-05-03T16:42:10.289Z,100303.75
2023-05-03T16:44:37.622Z,100306.22
2023-05-03T16:47:05.976Z,100302.38
2023-05-03T16:49:34.282Z,100303.84
2023-05-03T16:52:01.974Z,100295.72
2023-05-03T16:54:29.448Z,100294.50
2023-05-03T16:56:56.728Z,100299.91
2023-05-03T16:59:24.543Z,100296.69
2023-05-03T17:01:52.199Z,100301.19
2023-05-03T17:04:19.413Z,100298.09
2023-05-03T17:06:47.271Z,100305.37
2023-05-03T17:09:15.099Z,100304.84
2023-05-03T17:11:42.327Z,100300.19
2023-05-03T17:14:09.655Z,100306.34
2023-05-03T17:16:39.418Z,100312.56
2023-05-03T17:19:08.192Z,100309.97
2023-05-03T17:21:35.420Z,100306.50
2023-05-03T17:24:02.940Z,100311.37
2023-05-03T17:26:31.470Z,100306.91
2023-05-03T17:28:58.816Z,100306.38
2023-05-03T17:31:26.309Z,100306.50
2023-05-03T17:33:53.613Z,100310.34
2023-05-03T17:36:22.322Z,100306.69
2023-05-03T17:38:50.173Z,100303.97
2023-05-03T17:41:17.413Z,100309.09
2023-05-03T17:43:45.104Z,100307.31
2023-05-03T17:46:13.354Z,100316.31
2023-05-03T17:48:43.584Z,100313.47
2023-05-03T17:51:13.380Z,100319.16
2023-05-03T17:53:41.656Z,100311.72
2023-05-03T17:56:15.192Z,100328.31
2023-05-03T17:58:42.763Z,100324.75
2023-05-03T18:01:11.359Z,100333.19
2023-05-03T18:03:39.507Z,100331.00
2023-05-03T18:06:08.125Z,100336.34
2023-05-03T18:08:35.948Z,100329.91
2023-05-03T18:11:03.591Z,100345.75
2023-05-03T18:13:32.329Z,100343.81
2023-05-03T18:15:59.876Z,100346.91
2023-05-03T18:18:27.391Z,100349.19
2023-05-03T18:21:02.060Z,100348.78
2023-05-03T18:23:30.406Z,100354.47
2023-05-03T18:25:57.682Z,100355.16
2023-05-03T18:28:25.820Z,100349.50
2023-05-03T18:30:55.671Z,100350.75
2023-05-03T18:33:23.456Z,100360.06
2023-05-03T18:36:00.958Z,100361.22
2023-05-03T18:38:28.717Z,100361.19
2023-05-03T18:40:58.181Z,100363.06
2023-05-03T18:43:25.599Z,100359.69
2023-05-03T18:45:53.511Z,100366.56
2023-05-03T18:48:23.227Z,100365.72
2023-05-03T18:50:51.249Z,100377.31
2023-05-03T18:53:19.077Z,100381.75
2023-05-03T18:55:46.682Z,100377.81
2023-05-03T18:58:15.871Z,100379.31
2023-05-03T19:00:44.098Z,100384.34
2023-05-03T19:03:12.412Z,100387.06
2023-05-03T19:05:40.060Z,100392.63
2023-05-03T19:08:08.278Z,100399.63
2023-05-03T19:10:35.672Z,100395.75
2023-05-03T19:13:04.514Z,100389.94
2023-05-03T19:15:32.427Z,100397.47
2023-05-03T19:18:00.312Z,100400.50
2023-05-03T19:20:28.237Z,100402.25
2023-05-03T19:22:56.562Z,100406.69
2023-05-03T19:25:24.521Z,100406.37
2023-05-03T19:27:52.503Z,100410.16
2023-05-03T19:30:21.164Z,100407.19
2023-05-03T19:32:48.477Z,100419.59
2023-05-03T19:35:16.528Z,100416.44
2023-05-03T19:37:46.897Z,100418.12
2023-05-03T19:40:14.762Z,100415.50
2023-05-03T19:42:43.109Z,100423.37
2023-05-03T19:45:12.640Z,100428.53
2023-05-03T19:47:40.680Z,100428.09
2023-05-03T19:50:09.002Z,100423.44
2023-05-03T19:52:38.278Z,100431.94
2023-05-03T19:55:09.899Z,100433.87
2023-05-03T19:57:37.994Z,100433.53
2023-05-03T20:00:07.288Z,100441.50
2023-05-03T20:02:36.680Z,100439.03
2023-05-03T20:05:06.992Z,100439.44
2023-05-03T20:07:34.623Z,100444.81
2023-05-03T20:10:02.871Z,100454.44
2023-05-03T20:12:31.053Z,100444.56
2023-05-03T20:14:58.386Z,100450.34
2023-05-03T20:17:26.378Z,100448.66
2023-05-03T20:19:54.669Z,100453.81
2023-05-03T20:22:22.036Z,100458.72
2023-05-03T20:24:51.107Z,100456.22
2023-05-03T20:27:19.828Z,100461.91
2023-05-03T20:29:47.320Z,100452.28
2023-05-03T20:32:15.073Z,100459.53
2023-05-03T20:34:44.760Z,100468.06
2023-05-03T20:37:12.037Z,100472.31
2023-05-03T20:39:40.067Z,100474.87
2023-05-03T20:42:07.684Z,100476.63
2023-05-03T20:44:34.909Z,100481.06
2023-05-03T20:47:02.123Z,100474.03
2023-05-03T20:49:32.232Z,100485.06
2023-05-03T20:51:59.418Z,100483.16
2023-05-03T20:54:26.593Z,100481.28
2023-05-03T20:56:54.077Z,100486.62
2023-05-03T20:59:21.270Z,100486.03
2023-05-03T21:01:48.560Z,100491.03
2023-05-03T21:04:16.097Z,100486.06
2023-05-03T21:06:45.015Z,100484.31
2023-05-03T21:09:12.613Z,100482.88
2023-05-03T21:11:42.270Z,100487.44
2023-05-03T21:14:10.618Z,100478.47
2023-05-03T21:16:38.120Z,100479.62
2023-05-03T21:19:05.767Z,100483.22
2023-05-03T21:21:33.138Z,100469.53
2023-05-03T21:24:00.324Z,100473.31
2023-05-03T21:26:29.105Z,100471.69
2023-05-03T21:28:56.361Z,100472.81
2023-05-03T21:31:23.541Z,100469.84
2023-05-03T21:33:51.144Z,100481.28
2023-05-03T21:36:18.360Z,100474.22
2023-05-03T21:38:45.540Z,100475.13
2023-05-03T21:41:13.683Z,100475.59
2023-05-03T21:43:40.831Z,100474.16
2023-05-03T21:46:08.144Z,100476.69
2023-05-03T21:48:36.512Z,100485.56
2023-05-03T21:51:04.178Z,100482.38
2023-05-03T21:53:31.378Z,100485.69
2023-05-03T21:55:58.979Z,100486.91
2023-05-03T21:58:26.216Z,100487.63
2023-05-03T22:00:53.612Z,100489.47
2023-05-03T22:03:21.168Z,100486.78
2023-05-03T22:05:50.477Z,100483.84
2023-05-03T22:08:18.619Z,100486.56
2023-05-03T22:10:46.470Z,100487.50
2023-05-03T22:13:13.775Z,100484.69
2023-05-03T22:15:41.061Z,100483.38
2023-05-03T22:18:08.592Z,100481.13
2023-05-03T22:20:35.820Z,100490.22
2023-05-03T22:23:03.524Z,100482.56
2023-05-03T22:25:32.412Z,100477.59
2023-05-03T22:27:59.780Z,100481.72
2023-05-03T22:30:27.421Z,100476.44
2023-05-03T22:32:54.911Z,100470.91
2023-05-03T22:35:22.348Z,100477.44
2023-05-03T22:37:49.807Z,100470.72
2023-05-03T22:40:17.307Z,100472.44
2023-05-03T22:42:45.160Z,100464.56
2023-05-03T22:45:12.347Z,100468.31
2023-05-03T22:47:39.886Z,100470.13
2023-05-03T22:50:07.666Z,100460.31
2023-05-03T22:52:34.970Z,100454.22
2023-05-03T22:55:03.488Z,100449.34
2023-05-03T22:57:31.409Z,100449.25
2023-05-03T22:59:59.419Z,100451.00
2023-05-03T23:02:26.975Z,100452.91
2023-05-03T23:04:54.917Z,100449.97
2023-05-03T23:07:22.043Z,100450.34
2023-05-03T23:09:49.496Z,100451.38
2023-05-03T23:12:16.651Z,100445.53
2023-05-03T23:14:46.050Z,100442.38
2023-05-03T23:17:13.751Z,100442.75
2023-05-03T23:19:40.890Z,100441.50
2023-05-03T23:22:08.084Z,100444.31
2023-05-03T23:24:35.563Z,100447.37
2023-05-03T23:27:02.787Z,100444.09
2023-05-03T23:29:30.557Z,100439.56
2023-05-03T23:31:58.547Z,100426.91
2023-05-03T23:34:26.165Z,100440.50
2023-05-03T23:36:53.296Z,100424.50
2023-05-03T23:39:21.630Z,100433.37
2023-05-03T23:41:48.782Z,100422.69
2023-05-03T23:44:15.933Z,100425.44
2023-05-03T23:46:43.532Z,100422.03
2023-05-03T23:49:11.086Z,100421.44
2023-05-03T23:51:38.273Z,100424.59
2023-05-03T23:54:05.791Z,100417.03
2023-05-03T23:56:34.006Z,100408.53
2023-05-03T23:59:01.745Z,100413.25
